sensor_id;sensor_type;location;lat;lon;timestamp;temperature;humidity
7972;DHT22;4031;49.758;6.120;2023-03-16T00:01:18;-1.00;99.90
7972;DHT22;4031;49.758;6.120;2023-03-16T00:03:44;-1.00;99.90
7972;DHT22;4031;49.758;6.120;2023-03-16T00:06:10;-0.90;99.90
7972;DHT22;4031;49.758;6.120;2023-03-16T00:08:35;-0.90;99.90
7972;DHT22;4031;49.758;6.120;2023-03-16T00:11:02;-0.90;99.90
7972;DHT22;4031;49.758;6.120;2023-03-16T00:13:28;-1.00;99.90
7972;DHT22;4031;49.758;6.120;2023-03-16T00:15:59;-0.90;99.90
7972;DHT22;4031;49.758;6.120;2023-03-16T00:18:28;-1.00;99.90
7972;DHT22;4031;49.758;6.120;2023-03-16T00:20:59;-1.00;99.90
7972;DHT22;4031;49.758;6.120;2023-03-16T00:23:29;-1.00;99.90
7972;DHT22;4031;49.758;6.120;2023-03-16T00:26:00;-1.00;99.90
7972;DHT22;4031;49.758;6.120;2023-03-16T00:28:32;-1.00;99.90
7972;DHT22;4031;49.758;6.120;2023-03-16T00:31:03;-1.10;99.90
7972;DHT22;4031;49.758;6.120;2023-03-16T00:33:31;-1.00;99.90
7972;DHT22;4031;49.758;6.120;2023-03-16T00:36:03;-1.10;99.90
7972;DHT22;4031;49.758;6.120;2023-03-16T00:38:34;-1.20;99.90
7972;DHT22;4031;49.758;6.120;2023-03-16T00:41:03;-1.20;99.90
7972;DHT22;4031;49.758;6.120;2023-03-16T00:43:31;-1.30;99.90
7972;DHT22;4031;49.758;6.120;2023-03-16T00:46:11;-1.30;99.90
7972;DHT22;4031;49.758;6.120;2023-03-16T00:48:42;-1.20;99.90
7972;DHT22;4031;49.758;6.120;2023-03-16T00:51:11;-1.30;99.90
7972;DHT22;4031;49.758;6.120;2023-03-16T00:53:40;-1.30;99.90
7972;DHT22;4031;49.758;6.120;2023-03-16T00:56:08;-1.20;99.90
7972;DHT22;4031;49.758;6.120;2023-03-16T00:58:37;-1.10;99.90
7972;DHT22;4031;49.758;6.120;2023-03-16T01:01:06;-1.10;99.90
7972;DHT22;4031;49.758;6.120;2023-03-16T01:03:34;-1.10;99.90
7972;DHT22;4031;49.758;6.120;2023-03-16T01:06:04;-1.00;99.90
7972;DHT22;4031;49.758;6.120;2023-03-16T01:08:36;-1.00;99.90
7972;DHT22;4031;49.758;6.120;2023-03-16T01:11:08;-1.00;99.90
7972;DHT22;4031;49.758;6.120;2023-03-16T01:13:36;-0.90;99.90
7972;DHT22;4031;49.758;6.120;2023-03-16T01:16:02;-0.90;99.90
7972;DHT22;4031;49.758;6.120;2023-03-16T01:18:29;-0.90;99.90
7972;DHT22;4031;49.758;6.120;2023-03-16T01:21:02;-0.90;99.90
7972;DHT22;4031;49.758;6.120;2023-03-16T01:23:30;-0.90;99.90
7972;DHT22;4031;49.758;6.120;2023-03-16T01:25:57;-0.90;99.90
7972;DHT22;4031;49.758;6.120;2023-03-16T01:28:26;-0.90;99.90
7972;DHT22;4031;49.758;6.120;2023-03-16T01:30:58;-0.90;99.90
7972;DHT22;4031;49.758;6.120;2023-03-16T01:33:31;-0.90;99.90
7972;DHT22;4031;49.758;6.120;2023-03-16T01:36:03;-0.80;99.90
7972;DHT22;4031;49.758;6.120;2023-03-16T01:38:32;-0.80;99.90
7972;DHT22;4031;49.758;6.120;2023-03-16T01:40:58;-0.80;99.90
7972;DHT22;4031;49.758;6.120;2023-03-16T01:43:26;-0.80;99.90
7972;DHT22;4031;49.758;6.120;2023-03-16T01:51:22;-0.60;99.90
7972;DHT22;4031;49.758;6.120;2023-03-16T01:53:54;-0.60;99.90
7972;DHT22;4031;49.758;6.120;2023-03-16T01:56:26;-0.60;99.90
7972;DHT22;4031;49.758;6.120;2023-03-16T01:59:00;-0.60;99.90
7972;DHT22;4031;49.758;6.120;2023-03-16T02:01:27;-0.60;99.90
7972;DHT22;4031;49.758;6.120;2023-03-16T02:04:04;-0.50;99.90
7972;DHT22;4031;49.758;6.120;2023-03-16T02:06:42;-0.50;99.90
7972;DHT22;4031;49.758;6.120;2023-03-16T02:09:09;-0.40;99.90
7972;DHT22;4031;49.758;6.120;2023-03-16T02:11:35;-0.40;99.90
7972;DHT22;4031;49.758;6.120;2023-03-16T02:14:07;-0.40;99.90
7972;DHT22;4031;49.758;6.120;2023-03-16T02:16:34;-0.30;99.90
7972;DHT22;4031;49.758;6.120;2023-03-16T02:18:59;-0.30;99.90
7972;DHT22;4031;49.758;6.120;2023-03-16T02:21:45;-0.30;99.90
7972;DHT22;4031;49.758;6.120;2023-03-16T02:24:19;-0.30;99.90
7972;DHT22;4031;49.758;6.120;2023-03-16T02:26:51;-0.20;99.90
7972;DHT22;4031;49.758;6.120;2023-03-16T02:29:40;-0.20;99.90
7972;DHT22;4031;49.758;6.120;2023-03-16T02:32:07;-0.20;99.90
7972;DHT22;4031;49.758;6.120;2023-03-16T02:34:34;-0.20;99.90
7972;DHT22;4031;49.758;6.120;2023-03-16T02:37:00;-0.20;99.90
7972;DHT22;4031;49.758;6.120;2023-03-16T02:39:27;-0.10;99.90
7972;DHT22;4031;49.758;6.120;2023-03-16T02:41:52;-0.10;99.90
7972;DHT22;4031;49.758;6.120;2023-03-16T02:44:25;-0.10;99.90
7972;DHT22;4031;49.758;6.120;2023-03-16T02:46:56;-0.10;99.90
7972;DHT22;4031;49.758;6.120;2023-03-16T02:49:36;-0.10;99.90
7972;DHT22;4031;49.758;6.120;2023-03-16T02:52:04;0.00;99.90
7972;DHT22;4031;49.758;6.120;2023-03-16T02:54:31;0.00;99.90
7972;DHT22;4031;49.758;6.120;2023-03-16T02:56:57;0.00;99.90
7972;DHT22;4031;49.758;6.120;2023-03-16T02:59:22;0.00;99.90
7972;DHT22;4031;49.758;6.120;2023-03-16T03:01:48;0.00;99.90
7972;DHT22;4031;49.758;6.120;2023-03-16T03:04:14;0.00;99.90
7972;DHT22;4031;49.758;6.120;2023-03-16T03:06:39;0.00;99.90
7972;DHT22;4031;49.758;6.120;2023-03-16T03:09:06;0.10;99.90
7972;DHT22;4031;49.758;6.120;2023-03-16T03:11:32;0.00;99.90
7972;DHT22;4031;49.758;6.120;2023-03-16T03:13:58;0.10;99.90
7972;DHT22;4031;49.758;6.120;2023-03-16T03:16:24;0.10;99.90
7972;DHT22;4031;49.758;6.120;2023-03-16T03:18:50;0.10;99.90
7972;DHT22;4031;49.758;6.120;2023-03-16T03:21:17;0.10;99.90
7972;DHT22;4031;49.758;6.120;2023-03-16T03:23:43;0.00;99.90
7972;DHT22;4031;49.758;6.120;2023-03-16T03:26:11;0.00;99.90
7972;DHT22;4031;49.758;6.120;2023-03-16T03:28:39;0.00;99.90
7972;DHT22;4031;49.758;6.120;2023-03-16T03:31:05;0.00;99.90
7972;DHT22;4031;49.758;6.120;2023-03-16T03:33:32;0.00;99.90
7972;DHT22;4031;49.758;6.120;2023-03-16T03:36:00;0.00;99.90
7972;DHT22;4031;49.758;6.120;2023-03-16T03:38:26;0.10;99.90
7972;DHT22;4031;49.758;6.120;2023-03-16T03:40:53;0.00;99.90
7972;DHT22;4031;49.758;6.120;2023-03-16T03:43:19;0.10;99.90
7972;DHT22;4031;49.758;6.120;2023-03-16T03:45:45;0.00;99.90
7972;DHT22;4031;49.758;6.120;2023-03-16T03:48:11;0.00;99.90
7972;DHT22;4031;49.758;6.120;2023-03-16T03:50:37;0.00;99.90
7972;DHT22;4031;49.758;6.120;2023-03-16T03:53:05;-0.10;99.90
7972;DHT22;4031;49.758;6.120;2023-03-16T03:55:31;-0.10;99.90
7972;DHT22;4031;49.758;6.120;2023-03-16T03:57:57;0.00;99.90
7972;DHT22;4031;49.758;6.120;2023-03-16T04:00:22;0.00;99.90
7972;DHT22;4031;49.758;6.120;2023-03-16T04:02:48;0.00;99.90
7972;DHT22;4031;49.758;6.120;2023-03-16T04:05:14;0.00;99.90
7972;DHT22;4031;49.758;6.120;2023-03-16T04:07:40;0.10;99.90
7972;DHT22;4031;49.758;6.120;2023-03-16T04:10:07;0.10;99.90
7972;DHT22;4031;49.758;6.120;2023-03-16T04:12:33;0.10;99.90
7972;DHT22;4031;49.758;6.120;2023-03-16T04:14:59;0.10;99.90
7972;DHT22;4031;49.758;6.120;2023-03-16T04:17:25;0.10;99.90
7972;DHT22;4031;49.758;6.120;2023-03-16T04:19:50;0.20;99.90
7972;DHT22;4031;49.758;6.120;2023-03-16T04:22:16;0.20;99.90
7972;DHT22;4031;49.758;6.120;2023-03-16T04:24:42;0.20;99.90
7972;DHT22;4031;49.758;6.120;2023-03-16T04:27:09;0.30;99.90
7972;DHT22;4031;49.758;6.120;2023-03-16T04:29:38;0.30;99.90
7972;DHT22;4031;49.758;6.120;2023-03-16T04:32:05;0.30;99.90
7972;DHT22;4031;49.758;6.120;2023-03-16T04:34:31;0.40;99.90
7972;DHT22;4031;49.758;6.120;2023-03-16T04:36:57;0.40;99.90
7972;DHT22;4031;49.758;6.120;2023-03-16T04:39:23;0.50;99.90
7972;DHT22;4031;49.758;6.120;2023-03-16T04:41:48;0.50;99.90
7972;DHT22;4031;49.758;6.120;2023-03-16T04:44:14;0.50;99.90
7972;DHT22;4031;49.758;6.120;2023-03-16T04:46:40;0.40;99.90
7972;DHT22;4031;49.758;6.120;2023-03-16T04:49:06;0.50;99.90
7972;DHT22;4031;49.758;6.120;2023-03-16T04:51:34;0.60;99.90
7972;DHT22;4031;49.758;6.120;2023-03-16T04:54:02;0.60;99.90
7972;DHT22;4031;49.758;6.120;2023-03-16T04:56:28;0.60;99.90
7972;DHT22;4031;49.758;6.120;2023-03-16T04:58:53;0.60;99.90
7972;DHT22;4031;49.758;6.120;2023-03-16T05:01:21;0.70;99.90
7972;DHT22;4031;49.758;6.120;2023-03-16T05:03:47;0.70;99.90
7972;DHT22;4031;49.758;6.120;2023-03-16T05:06:14;0.70;99.90
7972;DHT22;4031;49.758;6.120;2023-03-16T05:08:40;0.70;99.90
7972;DHT22;4031;49.758;6.120;2023-03-16T05:11:06;0.70;99.90
7972;DHT22;4031;49.758;6.120;2023-03-16T05:13:32;0.70;99.90
7972;DHT22;4031;49.758;6.120;2023-03-16T05:15:58;0.70;99.90
7972;DHT22;4031;49.758;6.120;2023-03-16T05:18:24;0.70;99.90
7972;DHT22;4031;49.758;6.120;2023-03-16T05:20:54;0.70;99.90
7972;DHT22;4031;49.758;6.120;2023-03-16T05:23:21;0.70;99.90
7972;DHT22;4031;49.758;6.120;2023-03-16T05:25:47;0.70;99.90
7972;DHT22;4031;49.758;6.120;2023-03-16T05:28:14;0.70;99.90
7972;DHT22;4031;49.758;6.120;2023-03-16T05:30:41;0.70;99.90
7972;DHT22;4031;49.758;6.120;2023-03-16T05:33:07;0.70;99.90
7972;DHT22;4031;49.758;6.120;2023-03-16T05:35:33;0.70;99.90
7972;DHT22;4031;49.758;6.120;2023-03-16T05:37:59;0.60;99.90
7972;DHT22;4031;49.758;6.120;2023-03-16T05:40:25;0.60;99.90
7972;DHT22;4031;49.758;6.120;2023-03-16T05:42:56;0.60;99.90
7972;DHT22;4031;49.758;6.120;2023-03-16T05:45:24;0.60;99.90
7972;DHT22;4031;49.758;6.120;2023-03-16T05:47:50;0.60;99.90
7972;DHT22;4031;49.758;6.120;2023-03-16T05:50:17;0.60;99.90
7972;DHT22;4031;49.758;6.120;2023-03-16T05:52:44;0.60;99.90
7972;DHT22;4031;49.758;6.120;2023-03-16T05:55:16;0.60;99.90
7972;DHT22;4031;49.758;6.120;2023-03-16T05:57:42;0.60;99.90
7972;DHT22;4031;49.758;6.120;2023-03-16T06:00:10;0.60;99.90
7972;DHT22;4031;49.758;6.120;2023-03-16T06:02:41;0.60;99.90
7972;DHT22;4031;49.758;6.120;2023-03-16T06:05:08;0.70;99.90
7972;DHT22;4031;49.758;6.120;2023-03-16T06:07:34;0.70;99.90
7972;DHT22;4031;49.758;6.120;2023-03-16T06:10:00;0.80;99.90
7972;DHT22;4031;49.758;6.120;2023-03-16T06:12:25;0.90;99.90
7972;DHT22;4031;49.758;6.120;2023-03-16T06:14:51;0.90;99.90
7972;DHT22;4031;49.758;6.120;2023-03-16T06:17:17;1.10;99.90
7972;DHT22;4031;49.758;6.120;2023-03-16T06:19:43;1.20;99.90
7972;DHT22;4031;49.758;6.120;2023-03-16T06:22:08;1.40;99.90
7972;DHT22;4031;49.758;6.120;2023-03-16T06:24:34;1.50;99.90
7972;DHT22;4031;49.758;6.120;2023-03-16T06:27:00;1.60;99.90
7972;DHT22;4031;49.758;6.120;2023-03-16T06:29:25;1.80;99.90
7972;DHT22;4031;49.758;6.120;2023-03-16T06:31:51;2.00;99.90
7972;DHT22;4031;49.758;6.120;2023-03-16T06:34:19;2.00;99.90
7972;DHT22;4031;49.758;6.120;2023-03-16T06:36:44;2.10;99.90
7972;DHT22;4031;49.758;6.120;2023-03-16T06:39:10;2.20;99.90
7972;DHT22;4031;49.758;6.120;2023-03-16T06:41:36;2.30;99.90
7972;DHT22;4031;49.758;6.120;2023-03-16T06:44:02;2.30;99.90
7972;DHT22;4031;49.758;6.120;2023-03-16T06:46:28;2.30;99.90
7972;DHT22;4031;49.758;6.120;2023-03-16T06:48:54;2.30;99.90
7972;DHT22;4031;49.758;6.120;2023-03-16T06:51:19;2.40;99.90
7972;DHT22;4031;49.758;6.120;2023-03-16T06:53:45;2.30;99.90
7972;DHT22;4031;49.758;6.120;2023-03-16T06:56:11;2.40;99.90
7972;DHT22;4031;49.758;6.120;2023-03-16T06:58:36;2.40;99.90
7972;DHT22;4031;49.758;6.120;2023-03-16T07:01:03;2.50;99.90
7972;DHT22;4031;49.758;6.120;2023-03-16T07:03:29;2.60;99.90
7972;DHT22;4031;49.758;6.120;2023-03-16T07:05:55;2.70;99.90
7972;DHT22;4031;49.758;6.120;2023-03-16T07:08:21;2.80;99.90
7972;DHT22;4031;49.758;6.120;2023-03-16T07:10:47;3.00;99.90
7972;DHT22;4031;49.758;6.120;2023-03-16T07:13:14;3.20;99.90
7972;DHT22;4031;49.758;6.120;2023-03-16T07:15:40;3.30;99.90
7972;DHT22;4031;49.758;6.120;2023-03-16T07:18:06;3.50;99.90
7972;DHT22;4031;49.758;6.120;2023-03-16T07:20:31;3.60;99.90
7972;DHT22;4031;49.758;6.120;2023-03-16T07:22:57;3.70;99.90
7972;DHT22;4031;49.758;6.120;2023-03-16T07:25:23;3.80;99.90
7972;DHT22;4031;49.758;6.120;2023-03-16T07:27:49;4.00;99.90
7972;DHT22;4031;49.758;6.120;2023-03-16T07:30:15;4.10;99.90
7972;DHT22;4031;49.758;6.120;2023-03-16T07:32:41;4.20;99.90
7972;DHT22;4031;49.758;6.120;2023-03-16T07:35:08;4.50;99.90
7972;DHT22;4031;49.758;6.120;2023-03-16T07:37:36;4.80;99.90
7972;DHT22;4031;49.758;6.120;2023-03-16T07:40:03;5.00;99.90
7972;DHT22;4031;49.758;6.120;2023-03-16T07:42:31;5.10;99.90
7972;DHT22;4031;49.758;6.120;2023-03-16T07:44:56;5.20;99.90
7972;DHT22;4031;49.758;6.120;2023-03-16T07:47:22;5.20;99.90
7972;DHT22;4031;49.758;6.120;2023-03-16T07:49:50;5.10;99.90
7972;DHT22;4031;49.758;6.120;2023-03-16T07:52:15;5.10;99.90
7972;DHT22;4031;49.758;6.120;2023-03-16T07:54:41;5.30;99.90
7972;DHT22;4031;49.758;6.120;2023-03-16T07:57:07;5.50;99.90
7972;DHT22;4031;49.758;6.120;2023-03-16T07:59:33;6.00;99.90
7972;DHT22;4031;49.758;6.120;2023-03-16T08:01:59;6.20;99.90
7972;DHT22;4031;49.758;6.120;2023-03-16T08:04:25;6.40;99.90
7972;DHT22;4031;49.758;6.120;2023-03-16T08:06:50;6.50;99.90
7972;DHT22;4031;49.758;6.120;2023-03-16T08:09:27;6.40;99.90
7972;DHT22;4031;49.758;6.120;2023-03-16T08:11:53;6.50;99.90
7972;DHT22;4031;49.758;6.120;2023-03-16T08:14:19;6.90;99.90
7972;DHT22;4031;49.758;6.120;2023-03-16T08:16:44;7.20;99.90
7972;DHT22;4031;49.758;6.120;2023-03-16T08:19:11;7.50;99.90
7972;DHT22;4031;49.758;6.120;2023-03-16T08:21:37;8.30;99.90
7972;DHT22;4031;49.758;6.120;2023-03-16T08:24:03;9.30;99.90
7972;DHT22;4031;49.758;6.120;2023-03-16T08:26:28;10.10;99.90
7972;DHT22;4031;49.758;6.120;2023-03-16T08:28:54;10.80;99.90
7972;DHT22;4031;49.758;6.120;2023-03-16T08:31:20;11.70;99.90
7972;DHT22;4031;49.758;6.120;2023-03-16T08:33:47;12.50;99.90
7972;DHT22;4031;49.758;6.120;2023-03-16T08:36:15;13.50;99.90
7972;DHT22;4031;49.758;6.120;2023-03-16T08:38:42;13.90;99.90
7972;DHT22;4031;49.758;6.120;2023-03-16T08:41:09;13.90;99.90
7972;DHT22;4031;49.758;6.120;2023-03-16T08:43:36;13.70;99.90
7972;DHT22;4031;49.758;6.120;2023-03-16T08:46:03;13.30;99.90
7972;DHT22;4031;49.758;6.120;2023-03-16T08:48:30;13.40;99.90
7972;DHT22;4031;49.758;6.120;2023-03-16T08:51:01;13.80;99.90
7972;DHT22;4031;49.758;6.120;2023-03-16T08:53:27;14.00;99.90
7972;DHT22;4031;49.758;6.120;2023-03-16T08:56:01;14.60;99.90
7972;DHT22;4031;49.758;6.120;2023-03-16T08:58:30;14.70;99.90
7972;DHT22;4031;49.758;6.120;2023-03-16T09:01:03;14.30;99.90
7972;DHT22;4031;49.758;6.120;2023-03-16T09:03:30;13.80;99.90
7972;DHT22;4031;49.758;6.120;2023-03-16T09:06:01;13.20;99.90
7972;DHT22;4031;49.758;6.120;2023-03-16T09:08:29;12.80;99.90
7972;DHT22;4031;49.758;6.120;2023-03-16T09:10:59;12.20;99.90
7972;DHT22;4031;49.758;6.120;2023-03-16T09:13:27;12.10;99.90
7972;DHT22;4031;49.758;6.120;2023-03-16T09:15:53;11.90;99.90
7972;DHT22;4031;49.758;6.120;2023-03-16T09:18:18;12.10;99.90
7972;DHT22;4031;49.758;6.120;2023-03-16T09:20:45;12.30;99.90
7972;DHT22;4031;49.758;6.120;2023-03-16T09:23:12;12.00;99.90
7972;DHT22;4031;49.758;6.120;2023-03-16T09:25:38;11.70;99.90
7972;DHT22;4031;49.758;6.120;2023-03-16T09:28:04;12.00;99.90
7972;DHT22;4031;49.758;6.120;2023-03-16T09:30:31;12.70;99.90
7972;DHT22;4031;49.758;6.120;2023-03-16T09:32:57;12.60;99.90
7972;DHT22;4031;49.758;6.120;2023-03-16T09:35:24;12.70;99.90
7972;DHT22;4031;49.758;6.120;2023-03-16T09:37:50;13.40;99.90
7972;DHT22;4031;49.758;6.120;2023-03-16T09:40:25;14.90;99.90
7972;DHT22;4031;49.758;6.120;2023-03-16T09:48:37;16.80;99.90
7972;DHT22;4031;49.758;6.120;2023-03-16T09:51:07;16.90;99.90
7972;DHT22;4031;49.758;6.120;2023-03-16T09:53:49;17.20;99.90
7972;DHT22;4031;49.758;6.120;2023-03-16T09:56:31;17.80;99.90
7972;DHT22;4031;49.758;6.120;2023-03-16T09:59:00;18.00;99.90
7972;DHT22;4031;49.758;6.120;2023-03-16T10:01:53;17.80;99.90
7972;DHT22;4031;49.758;6.120;2023-03-16T10:04:38;17.70;99.90
7972;DHT22;4031;49.758;6.120;2023-03-16T10:10:00;16.90;99.90
7972;DHT22;4031;49.758;6.120;2023-03-16T10:12:29;16.90;99.90
7972;DHT22;4031;49.758;6.120;2023-03-16T10:15:19;17.50;99.90
7972;DHT22;4031;49.758;6.120;2023-03-16T10:20:33;18.40;99.90
7972;DHT22;4031;49.758;6.120;2023-03-16T10:23:12;18.90;99.90
7972;DHT22;4031;49.758;6.120;2023-03-16T10:25:49;19.20;99.90
7972;DHT22;4031;49.758;6.120;2023-03-16T10:28:21;19.10;99.90
7972;DHT22;4031;49.758;6.120;2023-03-16T10:30:51;19.20;99.90
7972;DHT22;4031;49.758;6.120;2023-03-16T10:33:33;19.20;99.90
7972;DHT22;4031;49.758;6.120;2023-03-16T10:36:24;19.40;99.90
7972;DHT22;4031;49.758;6.120;2023-03-16T10:39:18;19.70;99.90
7972;DHT22;4031;49.758;6.120;2023-03-16T10:41:46;19.50;99.90
7972;DHT22;4031;49.758;6.120;2023-03-16T10:44:24;19.40;99.90
7972;DHT22;4031;49.758;6.120;2023-03-16T10:47:03;19.70;99.90
7972;DHT22;4031;49.758;6.120;2023-03-16T10:52:45;19.10;99.90
7972;DHT22;4031;49.758;6.120;2023-03-16T10:55:27;18.80;99.90
7972;DHT22;4031;49.758;6.120;2023-03-16T10:57:56;18.20;99.90
7972;DHT22;4031;49.758;6.120;2023-03-16T11:00:28;17.90;99.90
7972;DHT22;4031;49.758;6.120;2023-03-16T11:02:59;17.40;99.90
7972;DHT22;4031;49.758;6.120;2023-03-16T11:05:31;17.30;99.90
7972;DHT22;4031;49.758;6.120;2023-03-16T11:08:08;16.90;99.50
7972;DHT22;4031;49.758;6.120;2023-03-16T11:10:44;16.70;99.60
7972;DHT22;4031;49.758;6.120;2023-03-16T11:13:18;16.50;98.30
7972;DHT22;4031;49.758;6.120;2023-03-16T11:15:55;16.70;99.90
7972;DHT22;4031;49.758;6.120;2023-03-16T11:18:57;16.60;99.20
7972;DHT22;4031;49.758;6.120;2023-03-16T11:21:46;17.00;99.90
7972;DHT22;4031;49.758;6.120;2023-03-16T11:25:37;17.30;99.90
7972;DHT22;4031;49.758;6.120;2023-03-16T11:27:41;17.80;99.90
7972;DHT22;4031;49.758;6.120;2023-03-16T11:30:17;18.20;99.90
7972;DHT22;4031;49.758;6.120;2023-03-16T11:32:49;18.50;99.90
7972;DHT22;4031;49.758;6.120;2023-03-16T11:38:19;19.20;99.20
7972;DHT22;4031;49.758;6.120;2023-03-16T11:41:30;19.10;98.20
7972;DHT22;4031;49.758;6.120;2023-03-16T11:53:20;18.40;93.70
7972;DHT22;4031;49.758;6.120;2023-03-16T11:56:10;18.50;94.80
7972;DHT22;4031;49.758;6.120;2023-03-16T12:10:00;18.70;92.50
7972;DHT22;4031;49.758;6.120;2023-03-16T12:12:43;18.30;93.20
7972;DHT22;4031;49.758;6.120;2023-03-16T12:15:31;18.00;91.40
7972;DHT22;4031;49.758;6.120;2023-03-16T12:18:14;17.90;93.80
7972;DHT22;4031;49.758;6.120;2023-03-16T12:20:49;17.90;93.50
7972;DHT22;4031;49.758;6.120;2023-03-16T12:23:28;17.90;93.30
7972;DHT22;4031;49.758;6.120;2023-03-16T12:25:57;17.90;90.30
7972;DHT22;4031;49.758;6.120;2023-03-16T12:28:27;17.80;90.90
7972;DHT22;4031;49.758;6.120;2023-03-16T12:31:17;17.60;91.40
7972;DHT22;4031;49.758;6.120;2023-03-16T12:34:15;17.10;91.10
7972;DHT22;4031;49.758;6.120;2023-03-16T12:37:00;16.90;89.00
7972;DHT22;4031;49.758;6.120;2023-03-16T12:40:05;17.00;90.10
7972;DHT22;4031;49.758;6.120;2023-03-16T12:45:35;17.10;88.40
7972;DHT22;4031;49.758;6.120;2023-03-16T12:48:18;17.00;90.20
7972;DHT22;4031;49.758;6.120;2023-03-16T12:50:59;17.20;90.00
7972;DHT22;4031;49.758;6.120;2023-03-16T12:53:27;17.10;84.80
7972;DHT22;4031;49.758;6.120;2023-03-16T12:56:15;16.80;84.00
7972;DHT22;4031;49.758;6.120;2023-03-16T12:58:46;16.90;86.60
7972;DHT22;4031;49.758;6.120;2023-03-16T13:01:15;16.60;84.30
7972;DHT22;4031;49.758;6.120;2023-03-16T13:03:47;16.50;87.00
7972;DHT22;4031;49.758;6.120;2023-03-16T13:06:22;16.60;86.00
7972;DHT22;4031;49.758;6.120;2023-03-16T13:08:54;16.70;86.30
7972;DHT22;4031;49.758;6.120;2023-03-16T13:11:24;16.90;87.00
7972;DHT22;4031;49.758;6.120;2023-03-16T13:16:31;16.60;85.60
7972;DHT22;4031;49.758;6.120;2023-03-16T13:19:16;16.60;85.30
7972;DHT22;4031;49.758;6.120;2023-03-16T13:22:00;16.40;87.40
7972;DHT22;4031;49.758;6.120;2023-03-16T13:24:36;16.50;88.50
7972;DHT22;4031;49.758;6.120;2023-03-16T13:27:14;16.60;88.20
7972;DHT22;4031;49.758;6.120;2023-03-16T13:29:53;16.80;88.80
7972;DHT22;4031;49.758;6.120;2023-03-16T13:32:20;16.90;89.50
7972;DHT22;4031;49.758;6.120;2023-03-16T13:34:49;16.80;90.20
7972;DHT22;4031;49.758;6.120;2023-03-16T13:37:19;16.70;89.10
7972;DHT22;4031;49.758;6.120;2023-03-16T13:40:00;16.70;89.80
7972;DHT22;4031;49.758;6.120;2023-03-16T13:42:30;16.90;89.90
7972;DHT22;4031;49.758;6.120;2023-03-16T13:44:57;17.00;85.70
7972;DHT22;4031;49.758;6.120;2023-03-16T13:47:27;17.30;87.10
7972;DHT22;4031;49.758;6.120;2023-03-16T13:49:57;17.40;87.90
7972;DHT22;4031;49.758;6.120;2023-03-16T13:52:29;17.60;90.00
7972;DHT22;4031;49.758;6.120;2023-03-16T13:54:59;18.00;87.50
7972;DHT22;4031;49.758;6.120;2023-03-16T13:57:35;18.60;90.60
7972;DHT22;4031;49.758;6.120;2023-03-16T14:02:41;19.30;90.20
7972;DHT22;4031;49.758;6.120;2023-03-16T14:05:19;19.10;85.10
7972;DHT22;4031;49.758;6.120;2023-03-16T14:07:48;18.90;85.90
7972;DHT22;4031;49.758;6.120;2023-03-16T14:10:19;18.60;84.30
7972;DHT22;4031;49.758;6.120;2023-03-16T14:12:57;18.40;82.20
7972;DHT22;4031;49.758;6.120;2023-03-16T14:15:30;18.30;84.40
7972;DHT22;4031;49.758;6.120;2023-03-16T14:20:57;18.70;86.00
7972;DHT22;4031;49.758;6.120;2023-03-16T14:23:30;19.00;84.20
7972;DHT22;4031;49.758;6.120;2023-03-16T14:25:58;18.70;80.80
7972;DHT22;4031;49.758;6.120;2023-03-16T14:28:30;18.40;79.40
7972;DHT22;4031;49.758;6.120;2023-03-16T14:31:04;18.30;80.80
7972;DHT22;4031;49.758;6.120;2023-03-16T14:33:33;18.40;80.60
7972;DHT22;4031;49.758;6.120;2023-03-16T14:36:16;18.40;82.00
7972;DHT22;4031;49.758;6.120;2023-03-16T14:38:44;18.50;81.40
7972;DHT22;4031;49.758;6.120;2023-03-16T14:41:28;18.30;80.30
7972;DHT22;4031;49.758;6.120;2023-03-16T14:43:57;18.00;80.00
7972;DHT22;4031;49.758;6.120;2023-03-16T14:46:37;17.70;80.00
7972;DHT22;4031;49.758;6.120;2023-03-16T14:49:13;17.60;80.20
7972;DHT22;4031;49.758;6.120;2023-03-16T14:51:50;17.10;78.40
7972;DHT22;4031;49.758;6.120;2023-03-16T14:54:19;16.70;78.20
7972;DHT22;4031;49.758;6.120;2023-03-16T14:56:53;16.20;77.40
7972;DHT22;4031;49.758;6.120;2023-03-16T14:59:22;15.90;78.70
7972;DHT22;4031;49.758;6.120;2023-03-16T15:01:49;15.70;79.20
7972;DHT22;4031;49.758;6.120;2023-03-16T15:04:19;15.70;81.60
7972;DHT22;4031;49.758;6.120;2023-03-16T15:06:49;15.60;79.20
7972;DHT22;4031;49.758;6.120;2023-03-16T15:09:34;15.70;79.80
7972;DHT22;4031;49.758;6.120;2023-03-16T15:12:02;15.80;82.70
7972;DHT22;4031;49.758;6.120;2023-03-16T15:14:28;15.60;79.60
7972;DHT22;4031;49.758;6.120;2023-03-16T15:17:12;15.40;81.20
7972;DHT22;4031;49.758;6.120;2023-03-16T15:19:38;15.50;81.10
7972;DHT22;4031;49.758;6.120;2023-03-16T15:22:04;15.60;81.70
7972;DHT22;4031;49.758;6.120;2023-03-16T15:24:30;15.70;81.00
7972;DHT22;4031;49.758;6.120;2023-03-16T15:26:57;15.80;81.30
7972;DHT22;4031;49.758;6.120;2023-03-16T15:29:23;16.00;83.10
7972;DHT22;4031;49.758;6.120;2023-03-16T15:31:49;15.80;80.20
7972;DHT22;4031;49.758;6.120;2023-03-16T15:34:15;15.80;82.90
7972;DHT22;4031;49.758;6.120;2023-03-16T15:36:41;15.70;83.20
7972;DHT22;4031;49.758;6.120;2023-03-16T15:39:19;15.60;85.10
7972;DHT22;4031;49.758;6.120;2023-03-16T15:41:46;15.60;86.20
7972;DHT22;4031;49.758;6.120;2023-03-16T15:44:12;15.70;86.10
7972;DHT22;4031;49.758;6.120;2023-03-16T15:46:38;15.50;85.80
7972;DHT22;4031;49.758;6.120;2023-03-16T15:49:03;15.30;84.00
7972;DHT22;4031;49.758;6.120;2023-03-16T15:51:30;14.90;83.60
7972;DHT22;4031;49.758;6.120;2023-03-16T15:53:58;14.50;83.00
7972;DHT22;4031;49.758;6.120;2023-03-16T15:56:29;14.20;84.40
7972;DHT22;4031;49.758;6.120;2023-03-16T15:59:02;13.90;82.80
7972;DHT22;4031;49.758;6.120;2023-03-16T16:01:34;13.60;81.20
7972;DHT22;4031;49.758;6.120;2023-03-16T16:04:11;13.30;83.00
7972;DHT22;4031;49.758;6.120;2023-03-16T16:06:47;13.20;83.80
7972;DHT22;4031;49.758;6.120;2023-03-16T16:09:13;13.20;85.30
7972;DHT22;4031;49.758;6.120;2023-03-16T16:11:40;13.20;85.00
7972;DHT22;4031;49.758;6.120;2023-03-16T16:14:11;13.30;84.60
7972;DHT22;4031;49.758;6.120;2023-03-16T16:16:41;13.40;84.80
7972;DHT22;4031;49.758;6.120;2023-03-16T16:19:14;13.50;84.00
7972;DHT22;4031;49.758;6.120;2023-03-16T16:21:41;13.40;80.80
7972;DHT22;4031;49.758;6.120;2023-03-16T16:24:08;13.30;81.40
7972;DHT22;4031;49.758;6.120;2023-03-16T16:26:37;13.20;80.50
7972;DHT22;4031;49.758;6.120;2023-03-16T16:29:14;13.00;82.50
7972;DHT22;4031;49.758;6.120;2023-03-16T16:31:42;12.80;84.40
7972;DHT22;4031;49.758;6.120;2023-03-16T16:34:14;12.50;81.60
7972;DHT22;4031;49.758;6.120;2023-03-16T16:36:42;12.30;83.90
7972;DHT22;4031;49.758;6.120;2023-03-16T16:39:09;12.00;83.00
7972;DHT22;4031;49.758;6.120;2023-03-16T16:41:36;11.80;82.90
7972;DHT22;4031;49.758;6.120;2023-03-16T16:44:03;11.70;83.20
7972;DHT22;4031;49.758;6.120;2023-03-16T16:46:36;11.50;83.10
7972;DHT22;4031;49.758;6.120;2023-03-16T16:49:12;11.40;83.40
7972;DHT22;4031;49.758;6.120;2023-03-16T16:51:40;11.40;84.50
7972;DHT22;4031;49.758;6.120;2023-03-16T16:54:21;11.30;85.60
7972;DHT22;4031;49.758;6.120;2023-03-16T16:56:49;11.20;84.20
7972;DHT22;4031;49.758;6.120;2023-03-16T16:59:19;11.10;83.40
7972;DHT22;4031;49.758;6.120;2023-03-16T17:02:22;11.10;84.70
7972;DHT22;4031;49.758;6.120;2023-03-16T17:04:53;11.00;88.10
7972;DHT22;4031;49.758;6.120;2023-03-16T17:07:18;10.80;90.10
7972;DHT22;4031;49.758;6.120;2023-03-16T17:09:44;10.70;92.20
7972;DHT22;4031;49.758;6.120;2023-03-16T17:12:16;10.50;92.10
7972;DHT22;4031;49.758;6.120;2023-03-16T17:14:45;10.40;92.10
7972;DHT22;4031;49.758;6.120;2023-03-16T17:17:14;10.20;93.80
7972;DHT22;4031;49.758;6.120;2023-03-16T17:19:42;10.10;92.20
7972;DHT22;4031;49.758;6.120;2023-03-16T17:22:23;10.10;91.70